Time;durP1;ratioP1;P1;durP2;ratioP2;P2;SDS_P1;SDS_P2;PMS_P1;PMS_P2;Temp;Humidity;BMP_temperature;BMP_pressure;BME280_temperature;BME280_humidity;BME280_pressure;Samples;Min_cycle;Max_cycle;Signal;HPM_P1;HPM_P2
2022/03/05 00:00:08;;;;;;;17.33;9.03;;;;;;;-2.37;78.75;98034.75;6277089;28;20793;-72
2022/03/05 00:03:15;;;;;;;13.70;8.83;;;;;;;-2.41;79.47;98040.88;6262712;28;20570;-72
2022/03/05 00:06:18;;;;;;;14.53;9.07;;;;;;;-2.44;79.52;98029.75;6261215;28;20259;-72
2022/03/05 00:09:21;;;;;;;13.17;8.03;;;;;;;-2.50;79.53;98040.25;6277359;28;20855;-72
2022/03/05 00:12:23;;;;;;;15.87;8.67;;;;;;;-2.51;79.84;98023.88;6239294;28;20244;-71
2022/03/05 00:15:28;;;;;;;15.33;9.13;;;;;;;-2.54;80.22;98025.69;6233508;28;20604;-72
2022/03/05 00:18:31;;;;;;;14.77;8.13;;;;;;;-2.53;80.01;98029.97;6276516;28;20237;-72
2022/03/05 00:21:33;;;;;;;16.23;8.97;;;;;;;-2.45;80.38;98031.50;6277315;28;20733;-73
2022/03/05 00:24:35;;;;;;;18.83;8.83;;;;;;;-2.39;80.21;98026.16;6257533;28;20736;-71
2022/03/05 00:27:38;;;;;;;15.90;9.77;;;;;;;-2.33;79.84;98025.19;6275771;28;20249;-72
2022/03/05 00:30:41;;;;;;;15.33;8.37;;;;;;;-2.26;80.18;98030.16;6258957;28;20742;-71
2022/03/05 00:33:43;;;;;;;13.03;8.43;;;;;;;-2.21;79.82;98031.81;6275679;28;20639;-73
2022/03/05 00:36:45;;;;;;;14.83;7.50;;;;;;;-2.17;79.67;98029.09;6256728;28;20218;-71
2022/03/05 00:39:47;;;;;;;12.67;8.13;;;;;;;-2.12;79.19;98024.69;6275579;28;20223;-73
2022/03/05 00:42:49;;;;;;;14.93;8.20;;;;;;;-2.08;79.84;98023.69;6258340;28;20530;-72
2022/03/05 00:45:52;;;;;;;13.77;8.80;;;;;;;-2.04;79.45;98024.47;6249504;28;20793;-72
2022/03/05 00:48:54;;;;;;;16.87;10.27;;;;;;;-2.01;79.57;98020.09;6253560;28;20252;-71
2022/03/05 00:51:56;;;;;;;15.57;8.70;;;;;;;-1.97;79.38;98011.34;6276560;28;20310;-72
2022/03/05 00:54:59;;;;;;;15.73;8.87;;;;;;;-1.95;79.12;98016.50;6237557;28;20362;-72
2022/03/05 00:58:01;;;;;;;15.40;8.87;;;;;;;-1.93;79.68;98023.34;6244670;28;20249;-71
2022/03/05 01:01:03;;;;;;;15.63;9.33;;;;;;;-1.92;79.25;98014.69;6275274;28;20273;-72
2022/03/05 01:04:05;;;;;;;18.27;9.27;;;;;;;-1.90;79.52;98007.72;6275059;28;20795;-73
2022/03/05 01:07:07;;;;;;;14.67;8.73;;;;;;;-1.87;79.58;98010.22;6257332;28;20250;-71
2022/03/05 01:10:10;;;;;;;24.27;13.43;;;;;;;-1.74;79.15;98009.94;6275422;28;20233;-73
2022/03/05 01:13:12;;;;;;;21.37;11.13;;;;;;;-1.67;78.96;98012.31;6260078;28;20625;-72
2022/03/05 01:16:14;;;;;;;16.63;9.80;;;;;;;-1.66;78.59;98011.41;6260430;28;20239;-71
2022/03/05 01:19:16;;;;;;;18.70;10.33;;;;;;;-1.61;79.14;98008.72;6245062;28;20211;-73
2022/03/05 01:22:19;;;;;;;19.17;11.30;;;;;;;-1.58;78.59;98011.22;6243258;28;20599;-72
2022/03/05 01:25:21;;;;;;;19.30;10.43;;;;;;;-1.55;78.94;98016.31;6240532;28;20321;-73
2022/03/05 01:28:23;;;;;;;19.77;10.40;;;;;;;-1.55;78.81;98011.13;6281419;28;20226;-72
2022/03/05 01:31:25;;;;;;;20.23;11.17;;;;;;;-1.53;78.73;98012.81;6283926;28;20637;-72
2022/03/05 01:34:27;;;;;;;20.53;11.67;;;;;;;-1.49;78.55;98016.97;6265829;28;20234;-72
2022/03/05 01:37:29;;;;;;;21.73;11.67;;;;;;;-1.42;78.60;98020.28;6283120;28;20226;-72
2022/03/05 01:40:31;;;;;;;24.23;13.13;;;;;;;-1.36;78.33;98008.88;6283889;28;21305;-74
2022/03/05 01:43:33;;;;;;;19.03;11.90;;;;;;;-1.34;78.48;98010.56;6283533;28;20739;-73
2022/03/05 01:46:39;;;;;;;18.53;12.20;;;;;;;-1.31;78.45;98005.31;6278817;28;20252;-73
2022/03/05 01:49:41;;;;;;;18.03;11.57;;;;;;;-1.29;78.10;98006.06;6283134;28;20226;-72
2022/03/05 01:52:43;;;;;;;22.37;13.10;;;;;;;-1.26;78.05;98005.16;6282040;28;20214;-72
2022/03/05 01:55:45;;;;;;;18.77;12.87;;;;;;;-1.25;78.19;98002.53;6283145;28;20764;-73
2022/03/05 01:58:49;;;;;;;20.60;12.77;;;;;;;-1.22;77.95;98005.03;6265746;28;20709;-73
2022/03/05 02:01:51;;;;;;;23.30;13.57;;;;;;;-1.18;77.67;98006.63;6283179;28;20241;-72
2022/03/05 02:04:53;;;;;;;20.83;13.23;;;;;;;-1.18;77.72;98004.03;6282321;28;20776;-72
2022/03/05 02:07:55;;;;;;;22.17;13.07;;;;;;;-1.15;77.48;98003.97;6261135;28;20342;-72
2022/03/05 02:11:03;;;;;;;23.33;13.17;;;;;;;-1.12;77.00;98008.22;6271259;28;20586;-72
2022/03/05 02:14:05;;;;;;;27.23;14.50;;;;;;;-1.05;76.81;98012.31;6265180;28;20228;-72
2022/03/05 02:17:08;;;;;;;25.13;13.73;;;;;;;-1.01;76.91;98011.34;6268877;28;20770;-72
2022/03/05 02:20:10;;;;;;;28.03;15.23;;;;;;;-0.98;76.60;98010.38;6271206;28;20239;-72
2022/03/05 02:23:12;;;;;;;22.27;13.70;;;;;;;-0.96;76.72;98006.88;6258110;28;20244;-72
2022/03/05 02:26:15;;;;;;;26.13;14.70;;;;;;;-0.97;76.72;98007.75;6240763;28;20269;-72
2022/03/05 02:29:17;;;;;;;27.40;15.13;;;;;;;-0.99;77.02;98009.53;6278423;28;20312;-72
2022/03/05 02:32:19;;;;;;;22.90;13.50;;;;;;;-1.01;77.54;98003.56;6282783;28;20230;-72
2022/03/05 02:35:21;;;;;;;22.77;14.20;;;;;;;-1.00;77.67;98002.69;6255416;28;20691;-72
2022/03/05 02:38:24;;;;;;;28.47;15.20;;;;;;;-1.01;77.80;98008.75;6241258;28;20756;-72
2022/03/05 02:41:26;;;;;;;29.87;16.40;;;;;;;-1.02;78.36;98004.47;6236782;28;20281;-73
2022/03/05 02:44:28;;;;;;;29.30;15.40;;;;;;;-1.02;78.57;98009.66;6236615;28;20258;-71
2022/03/05 02:47:30;;;;;;;26.47;15.30;;;;;;;-1.01;78.40;98008.75;6231710;28;20234;-73
2022/03/05 02:50:33;;;;;;;28.47;15.37;;;;;;;-1.02;78.58;98011.38;6253914;28;20587;-73
2022/03/05 02:53:35;;;;;;;29.47;15.57;;;;;;;-1.03;79.40;98007.94;6253607;28;20234;-72
2022/03/05 02:56:38;;;;;;;29.70;16.97;;;;;;;-1.07;79.51;98008.91;6253588;28;20597;-73
2022/03/05 02:59:40;;;;;;;32.37;17.80;;;;;;;-1.10;80.03;98013.34;6219600;28;20750;-71
2022/03/05 03:02:46;;;;;;;29.57;17.27;;;;;;;-1.14;80.38;98008.25;6236391;28;20234;-72
2022/03/05 03:05:48;;;;;;;28.40;16.87;;;;;;;-1.13;81.13;98009.94;6236556;28;20227;-72
2022/03/05 03:08:50;;;;;;;28.00;16.57;;;;;;;-1.15;81.39;98009.13;6252717;28;20230;-73
2022/03/05 03:11:55;;;;;;;29.13;16.97;;;;;;;-1.16;81.72;98004.00;6253381;28;20718;-72
2022/03/05 03:14:57;;;;;;;26.37;16.50;;;;;;;-1.17;81.49;98013.50;6234057;28;20231;-72
2022/03/05 03:17:59;;;;;;;35.20;19.00;;;;;;;-1.17;81.61;98010.06;6253400;28;20241;-72
2022/03/05 03:21:01;;;;;;;29.80;18.27;;;;;;;-1.15;81.48;98013.47;6232476;28;20228;-73
2022/03/05 03:24:03;;;;;;;28.27;16.77;;;;;;;-1.16;81.77;98014.34;6247124;28;20691;-73
2022/03/05 03:27:05;;;;;;;26.80;15.73;;;;;;;-1.17;81.62;98010.91;6254021;28;20241;-73
2022/03/05 03:30:10;;;;;;;28.23;16.87;;;;;;;-1.19;81.98;98007.53;6235589;28;20219;-74
2022/03/05 03:33:12;;;;;;;29.80;17.03;;;;;;;-1.17;82.11;98005.75;6252444;28;20657;-73
2022/03/05 03:36:14;;;;;;;29.13;16.70;;;;;;;-1.15;82.14;98013.47;6242795;28;20696;-73
2022/03/05 03:39:16;;;;;;;29.77;18.53;;;;;;;-1.17;82.06;98008.34;6260039;28;20307;-72
2022/03/05 03:42:18;;;;;;;26.77;16.40;;;;;;;-1.19;82.03;98007.53;6278590;28;20800;-73
2022/03/05 03:45:21;;;;;;;29.63;16.97;;;;;;;-1.19;82.20;98012.69;6272546;28;20377;-72
2022/03/05 03:48:23;;;;;;;28.83;17.13;;;;;;;-1.21;81.94;98011.06;6256687;28;20682;-74
2022/03/05 03:51:26;;;;;;;28.40;15.67;;;;;;;-1.24;82.26;98006.81;6276886;28;20221;-72
2022/03/05 03:54:33;;;;;;;25.67;15.90;;;;;;;-1.28;81.96;98001.75;6277079;28;20646;-74
2022/03/05 03:57:35;;;;;;;28.87;15.70;;;;;;;-1.36;82.01;97999.38;6258783;28;20600;-73
2022/03/05 04:00:38;;;;;;;32.00;16.77;;;;;;;-1.42;82.27;97999.56;6260108;28;20230;-73
2022/03/05 04:03:40;;;;;;;27.50;15.47;;;;;;;-1.49;82.57;97998.00;6276475;28;20622;-73
2022/03/05 04:10:05;;;;;;;24.70;16.33;;;;;;;-1.61;82.82;98004.41;6277759;28;20226;-73
2022/03/05 04:13:08;;;;;;;25.10;15.53;;;;;;;-1.65;82.74;98004.50;6276519;28;20222;-73
2022/03/05 04:16:10;;;;;;;31.33;16.77;;;;;;;-1.66;82.73;98003.66;6266268;28;20250;-72
2022/03/05 04:19:12;;;;;;;28.97;16.23;;;;;;;-1.65;82.75;97996.75;6266816;28;20789;-74
2022/03/05 04:22:14;;;;;;;26.40;15.73;;;;;;;-1.62;83.09;98007.88;6251308;28;20234;-72
2022/03/05 04:25:16;;;;;;;25.93;14.93;;;;;;;-1.58;83.15;98004.28;6259005;28;20265;-72
2022/03/05 04:28:18;;;;;;;26.20;15.70;;;;;;;-1.54;83.04;98007.66;6276211;28;20238;-72
2022/03/05 04:31:21;;;;;;;26.83;15.80;;;;;;;-1.52;83.13;98011.91;6275888;28;20653;-73
2022/03/05 04:34:23;;;;;;;26.73;14.47;;;;;;;-1.49;83.14;98013.53;6258532;28;20230;-73
2022/03/05 04:37:25;;;;;;;28.50;15.43;;;;;;;-1.50;83.29;98014.47;6275304;28;20492;-73
2022/03/05 04:40:28;;;;;;;26.40;14.87;;;;;;;-1.51;83.08;98013.63;6259170;28;20230;-74
2022/03/05 04:43:30;;;;;;;22.43;13.23;;;;;;;-1.52;83.33;98014.50;6275436;28;20276;-73
2022/03/05 04:46:32;;;;;;;25.73;15.17;;;;;;;-1.54;83.12;98018.84;6243822;28;20651;-72
2022/03/05 04:49:34;;;;;;;23.17;13.07;;;;;;;-1.58;83.22;98012.06;6249134;28;20245;-72
2022/03/05 04:52:37;;;;;;;22.70;13.30;;;;;;;-1.62;83.30;98014.78;6275827;28;20295;-72
2022/03/05 04:55:39;;;;;;;20.67;12.80;;;;;;;-1.71;83.53;98015.03;6275787;28;20235;-73
2022/03/05 04:58:41;;;;;;;23.13;13.20;;;;;;;-1.80;83.95;98008.34;6259595;28;20328;-73
2022/03/05 05:01:43;;;;;;;27.63;14.60;;;;;;;-1.89;83.63;98021.50;6257311;28;20625;-73
2022/03/05 05:04:46;;;;;;;23.27;13.87;;;;;;;-1.98;84.04;98026.91;6275423;28;20236;-73
2022/03/05 05:07:48;;;;;;;21.63;12.07;;;;;;;-2.02;83.88;98027.88;6274702;28;20702;-72
2022/03/05 05:10:50;;;;;;;22.43;13.73;;;;;;;-2.07;84.32;98035.75;6257596;28;20375;-73
2022/03/05 05:13:52;;;;;;;22.57;12.90;;;;;;;-2.15;84.02;98031.66;6240807;28;20596;-72
2022/03/05 05:16:54;;;;;;;19.13;12.47;;;;;;;-2.28;84.24;98026.75;6271429;28;20263;-74
2022/03/05 05:19:56;;;;;;;27.80;15.43;;;;;;;-2.31;84.13;98026.88;6273842;28;20253;-74
2022/03/05 05:22:58;;;;;;;24.27;13.67;;;;;;;-2.37;83.83;98028.72;6256568;28;20241;-72
2022/03/05 05:26:00;;;;;;;25.87;15.53;;;;;;;-2.45;83.87;98034.06;6275601;28;20701;-73
2022/03/05 05:29:02;;;;;;;24.03;15.00;;;;;;;-2.51;84.05;98031.66;6276083;28;20235;-72
2022/03/05 05:32:06;;;;;;;22.63;14.33;;;;;;;-2.54;83.74;98030.84;6275612;28;20661;-72
2022/03/05 05:35:20;;;;;;;25.27;14.33;;;;;;;-2.56;83.76;98030.88;6274778;28;20821;-72
2022/03/05 05:38:23;;;;;;;25.50;15.50;;;;;;;-2.55;84.02;98037.75;6274691;28;20235;-72
2022/03/05 05:41:25;;;;;;;27.37;15.97;;;;;;;-2.53;83.72;98037.72;6257016;28;20591;-73
2022/03/05 05:44:27;;;;;;;33.50;17.23;;;;;;;-2.48;83.86;98033.28;6257171;28;20233;-73
2022/03/05 05:47:29;;;;;;;28.53;15.80;;;;;;;-2.45;83.75;98034.06;6263776;28;20721;-73
2022/03/05 05:50:31;;;;;;;30.83;16.90;;;;;;;-2.42;83.62;98033.16;6274932;28;20236;-74
2022/03/05 05:53:33;;;;;;;31.03;17.10;;;;;;;-2.39;83.73;98033.06;6257005;28;20277;-73
2022/03/05 05:56:36;;;;;;;31.83;17.20;;;;;;;-2.35;83.47;98030.38;6256510;28;20748;-72
2022/03/05 05:59:37;;;;;;;25.97;15.50;;;;;;;-2.28;83.58;98039.69;6276875;28;20229;-73
2022/03/05 06:02:41;;;;;;;29.00;16.87;;;;;;;-2.21;83.32;98042.16;6274726;28;20317;-73
2022/03/05 06:05:43;;;;;;;31.40;16.40;;;;;;;-2.17;83.15;98034.25;6256889;28;20545;-72
2022/03/05 06:08:44;;;;;;;28.23;15.17;;;;;;;-2.09;83.53;98037.50;6256771;28;20241;-73
2022/03/05 06:11:46;;;;;;;27.80;16.47;;;;;;;-2.00;83.41;98032.16;6273740;28;20270;-72
2022/03/05 06:14:48;;;;;;;28.67;16.07;;;;;;;-1.96;83.19;98038.91;6277328;28;20241;-72
2022/03/05 06:17:50;;;;;;;24.90;15.30;;;;;;;-1.89;83.33;98042.19;6218164;28;20229;-72
2022/03/05 06:20:52;;;;;;;30.40;15.70;;;;;;;-1.81;83.17;98049.78;6238592;28;20231;-73
2022/03/05 06:23:54;;;;;;;29.60;17.97;;;;;;;-1.72;83.28;98042.63;6277898;28;20732;-72
2022/03/05 06:26:56;;;;;;;30.20;17.10;;;;;;;-1.61;83.05;98053.56;6260930;28;20230;-73
2022/03/05 06:29:59;;;;;;;27.50;15.20;;;;;;;-1.54;82.80;98049.06;6279612;28;20758;-72
2022/03/05 06:33:01;;;;;;;27.90;15.37;;;;;;;-1.44;82.58;98057.44;6260513;28;20233;-71
2022/03/05 06:36:04;;;;;;;32.23;17.10;;;;;;;-1.37;82.80;98053.78;6255391;28;20293;-73
2022/03/05 06:39:06;;;;;;;28.07;16.43;;;;;;;-1.28;82.31;98059.56;6253827;28;20704;-73
2022/03/05 06:42:08;;;;;;;29.43;17.73;;;;;;;-1.15;81.96;98065.25;6253784;28;20215;-73
2022/03/05 06:45:11;;;;;;;27.83;16.23;;;;;;;-1.03;81.59;98062.34;6250989;28;20572;-73
2022/03/05 06:48:13;;;;;;;26.70;16.33;;;;;;;-0.89;81.79;98067.09;6230297;28;20222;-73
2022/03/05 06:51:15;;;;;;;34.67;18.97;;;;;;;-0.77;81.48;98066.75;6229991;28;20262;-73
2022/03/05 06:54:17;;;;;;;28.93;17.23;;;;;;;-0.65;81.21;98068.16;6251483;28;20590;-72
2022/03/05 06:57:19;;;;;;;29.77;16.83;;;;;;;-0.56;80.80;98065.28;6252982;28;20703;-73
2022/03/05 07:00:21;;;;;;;30.13;17.13;;;;;;;-0.44;80.68;98072.69;6252822;28;20284;-74
2022/03/05 07:03:23;;;;;;;27.93;16.63;;;;;;;-0.34;80.44;98061.16;6252622;28;21097;-73
2022/03/05 07:06:26;;;;;;;29.40;18.07;;;;;;;-0.21;79.92;98057.28;6225999;28;20235;-73
2022/03/05 07:09:28;;;;;;;25.87;16.17;;;;;;;-0.10;79.46;98059.56;6215726;28;20601;-72
2022/03/05 07:12:30;;;;;;;28.57;17.27;;;;;;;-0.05;78.69;98063.69;6235405;28;20571;-73
2022/03/05 07:15:38;;;;;;;30.97;17.73;;;;;;;0.02;77.81;98058.28;6232608;28;20227;-74
2022/03/05 07:18:40;;;;;;;23.03;15.77;;;;;;;0.08;77.71;98061.56;6228119;28;20600;-74
2022/03/05 07:21:42;;;;;;;27.50;16.93;;;;;;;0.22;77.07;98058.47;6248353;28;20215;-73
2022/03/05 07:24:44;;;;;;;30.17;17.90;;;;;;;0.27;75.98;98054.84;6235405;28;20578;-73
2022/03/05 07:27:46;;;;;;;25.00;16.73;;;;;;;0.33;75.46;98059.84;6238535;28;20231;-73
2022/03/05 07:30:48;;;;;;;29.50;17.77;;;;;;;0.41;74.48;98062.16;6229304;28;20493;-74
2022/03/05 07:33:50;;;;;;;30.80;17.93;;;;;;;0.46;74.68;98056.81;6219914;28;20227;-74
2022/03/05 07:36:52;;;;;;;27.83;16.73;;;;;;;0.52;73.10;98065.25;6237720;28;20239;-74
2022/03/05 07:39:54;;;;;;;27.33;16.30;;;;;;;0.50;73.10;98063.63;6253566;28;20223;-74
2022/03/05 07:42:57;;;;;;;25.33;16.37;;;;;;;0.55;73.56;98065.16;6235159;28;20226;-74
2022/03/05 07:49:35;;;;;;;26.23;16.50;;;;;;;0.83;73.21;98056.41;6225573;28;20268;-69
2022/03/05 07:52:38;;;;;;;24.87;16.37;;;;;;;0.87;72.30;98069.22;6226848;28;20239;-70
2022/03/05 07:55:41;;;;;;;28.23;16.67;;;;;;;0.89;71.74;98064.00;6227584;28;20251;-69
2022/03/05 07:58:43;;;;;;;27.37;15.87;;;;;;;0.91;71.94;98063.00;6207010;28;20243;-68
2022/03/05 08:01:45;;;;;;;26.17;15.43;;;;;;;1.02;71.78;98070.41;6202435;28;20309;-69
2022/03/05 08:04:50;;;;;;;24.07;15.17;;;;;;;1.09;70.91;98064.97;6225860;28;20749;-69
2022/03/05 08:08:07;;;;;;;23.07;15.17;;;;;;;1.21;70.82;98063.66;6193598;28;20243;-71
2022/03/05 08:11:10;;;;;;;27.17;15.33;;;;;;;1.33;69.95;98065.81;6201441;28;20926;-69
2022/03/05 08:14:12;;;;;;;24.00;14.83;;;;;;;1.48;69.54;98062.63;6198471;28;20652;-70
2022/03/05 08:17:14;;;;;;;27.27;16.07;;;;;;;1.57;69.35;98071.00;6218197;28;20251;-69
2022/03/05 08:20:17;;;;;;;25.73;15.87;;;;;;;1.76;68.51;98064.19;6222308;28;20235;-69
2022/03/05 08:23:19;;;;;;;26.00;15.97;;;;;;;1.85;68.52;98062.06;6227771;28;20242;-69
2022/03/05 08:26:22;;;;;;;28.17;16.87;;;;;;;2.04;68.92;98062.16;6227934;28;20224;-70
2022/03/05 08:29:25;;;;;;;26.23;15.53;;;;;;;2.11;67.21;98066.22;6208724;28;20305;-69
2022/03/05 08:32:27;;;;;;;24.23;15.40;;;;;;;2.19;67.51;98061.56;6227161;28;20251;-69
2022/03/05 08:35:29;;;;;;;27.70;15.83;;;;;;;2.19;66.14;98073.75;6225299;28;20706;-70
2022/03/05 08:38:36;;;;;;;21.77;15.07;;;;;;;2.05;67.07;98066.47;6225158;28;20275;-69
2022/03/05 08:41:38;;;;;;;24.87;16.00;;;;;;;2.11;67.20;98067.97;6226186;28;20227;-70
2022/03/05 08:44:40;;;;;;;23.37;15.23;;;;;;;2.29;66.95;98067.25;6208000;28;20232;-70
2022/03/05 08:47:44;;;;;;;24.10;14.83;;;;;;;2.55;66.81;98061.78;6243417;28;20231;-69
2022/03/05 08:50:46;;;;;;;23.07;15.00;;;;;;;2.76;65.46;98065.25;6232464;28;20605;-68
2022/03/05 08:53:48;;;;;;;25.83;15.10;;;;;;;3.08;65.20;98071.66;6250327;28;20234;-69
2022/03/05 08:56:50;;;;;;;26.83;16.00;;;;;;;3.52;65.40;98064.44;6231524;28;20231;-69
2022/03/05 08:59:52;;;;;;;20.43;14.20;;;;;;;3.91;61.93;98066.94;6250811;28;20223;-69
2022/03/05 09:02:54;;;;;;;21.03;13.60;;;;;;;4.05;62.44;98066.31;6231639;28;20579;-70
2022/03/05 09:05:57;;;;;;;20.97;13.10;;;;;;;4.20;61.44;98060.31;6232446;28;20655;-69
2022/03/05 09:09:02;;;;;;;21.63;13.57;;;;;;;4.07;59.79;98061.88;6250330;28;20233;-68
2022/03/05 09:12:05;;;;;;;19.83;13.27;;;;;;;4.05;59.62;98071.53;6250078;28;20347;-69
2022/03/05 09:15:07;;;;;;;20.40;13.27;;;;;;;3.46;59.76;98074.31;6231610;28;20235;-69
2022/03/05 09:18:11;;;;;;;20.60;13.57;;;;;;;3.03;61.11;98072.78;6249976;28;20678;-69
2022/03/05 09:21:12;;;;;;;19.13;12.13;;;;;;;2.87;61.61;98073.44;6250228;28;20229;-69
2022/03/05 09:24:14;;;;;;;18.97;13.23;;;;;;;2.88;61.18;98076.91;6249822;28;20272;-68
2022/03/05 09:27:17;;;;;;;22.20;13.70;;;;;;;2.90;60.25;98078.50;6250021;28;20751;-67
2022/03/05 09:30:19;;;;;;;20.80;13.10;;;;;;;3.36;59.69;98075.66;6233073;28;20204;-68
2022/03/05 09:33:22;;;;;;;17.37;11.87;;;;;;;3.97;59.11;98063.22;6231822;28;20287;-68
2022/03/05 09:36:25;;;;;;;19.70;12.47;;;;;;;3.99;58.27;98066.63;6231569;28;20667;-68
2022/03/05 09:39:27;;;;;;;19.27;12.57;;;;;;;3.62;57.21;98072.69;6249913;28;20247;-68
2022/03/05 09:42:29;;;;;;;20.80;11.80;;;;;;;3.41;58.56;98078.88;6249547;28;20321;-69
2022/03/05 09:45:31;;;;;;;17.97;12.53;;;;;;;2.96;59.95;98072.19;6250412;28;20239;-68
2022/03/05 09:48:37;;;;;;;22.27;14.50;;;;;;;2.90;60.50;98088.94;6252439;28;20245;-68
2022/03/05 09:51:39;;;;;;;21.60;14.33;;;;;;;3.09;60.40;98086.41;6237303;28;20291;-68
2022/03/05 09:54:41;;;;;;;19.33;11.77;;;;;;;3.22;60.30;98086.69;6254630;28;20233;-68
2022/03/05 09:57:43;;;;;;;20.20;13.30;;;;;;;3.59;59.48;98075.47;6237513;28;20694;-68
2022/03/05 10:00:45;;;;;;;16.40;12.73;;;;;;;4.16;57.80;98079.69;6237368;28;20244;-70
2022/03/05 10:03:52;;;;;;;19.50;13.70;;;;;;;4.38;56.30;98075.13;6236825;28;20228;-68
2022/03/05 10:07:17;;;;;;;16.73;12.10;;;;;;;4.91;56.47;98079.41;6237247;28;20264;-68
2022/03/05 10:10:19;;;;;;;19.80;12.70;;;;;;;5.67;54.87;98072.78;6256209;28;20269;-68
2022/03/05 10:13:30;;;;;;;17.53;12.23;;;;;;;6.22;52.92;98067.13;6256048;28;20249;-69
2022/03/05 10:16:35;;;;;;;18.27;12.63;;;;;;;6.29;53.05;98058.81;6253981;28;20235;-68
2022/03/05 10:19:37;;;;;;;18.10;12.33;;;;;;;5.69;53.05;98065.66;6245234;28;20694;-68
2022/03/05 10:23:07;;;;;;;18.80;12.60;;;;;;;5.16;54.75;98061.53;6212751;28;20610;-68
2022/03/05 10:26:10;;;;;;;20.00;13.53;;;;;;;4.88;55.89;98057.81;6229674;28;20233;-68
2022/03/05 10:29:23;;;;;;;16.90;11.97;;;;;;;4.88;56.19;98057.81;6229601;28;20231;-68
2022/03/05 10:32:27;;;;;;;18.13;12.50;;;;;;;4.96;56.42;98055.66;6229391;28;20491;-71
2022/03/05 10:35:29;;;;;;;16.40;11.30;;;;;;;4.48;55.32;98057.22;6210741;28;20286;-68
2022/03/05 10:38:45;;;;;;;17.03;11.27;;;;;;;4.21;53.94;98061.19;6210758;28;20324;-68
2022/03/05 10:41:49;;;;;;;16.13;11.47;;;;;;;4.61;54.05;98055.66;6227262;28;20681;-68
2022/03/05 10:45:05;;;;;;;19.57;11.77;;;;;;;4.98;53.40;98052.03;6212002;28;20735;-69
2022/03/05 10:48:20;;;;;;;17.60;11.87;;;;;;;5.76;53.05;98040.00;6235108;28;20234;-68
2022/03/05 10:51:22;;;;;;;17.07;11.83;;;;;;;5.65;50.92;98045.81;6235170;28;20226;-67
2022/03/05 10:54:34;;;;;;;16.93;11.60;;;;;;;5.61;52.39;98044.28;6234816;28;20234;-69
2022/03/05 10:57:37;;;;;;;16.27;11.17;;;;;;;5.11;50.77;98045.22;6252311;28;20697;-68
2022/03/05 11:00:40;;;;;;;17.00;11.17;;;;;;;5.03;52.35;98052.63;6251555;28;20364;-68
2022/03/05 11:03:45;;;;;;;17.20;12.17;;;;;;;4.77;53.73;98043.53;6234443;28;20305;-68
2022/03/05 11:06:47;;;;;;;14.40;10.80;;;;;;;4.48;54.01;98045.94;6251580;28;20325;-68
2022/03/05 11:09:54;;;;;;;17.83;11.70;;;;;;;4.33;54.93;98044.91;6226113;28;20714;-69
2022/03/05 11:12:59;;;;;;;16.60;11.17;;;;;;;4.20;55.31;98049.88;6228413;28;20721;-68
2022/03/05 11:16:02;;;;;;;17.50;11.17;;;;;;;3.93;55.09;98044.22;6238068;28;20231;-68
2022/03/05 11:19:04;;;;;;;16.53;11.93;;;;;;;3.40;56.20;98049.34;6248414;28;20597;-67
2022/03/05 11:22:08;;;;;;;19.33;12.83;;;;;;;3.06;58.25;98057.84;6210526;28;20238;-68
2022/03/05 11:25:14;;;;;;;17.80;12.27;;;;;;;3.06;58.58;98051.78;6226407;28;20275;-68
2022/03/05 11:28:22;;;;;;;18.70;12.50;;;;;;;3.20;58.51;98052.84;6233045;28;20217;-69
2022/03/05 11:31:32;;;;;;;19.53;12.23;;;;;;;3.31;58.33;98052.38;6250945;28;20262;-68
2022/03/05 11:34:47;;;;;;;18.70;12.87;;;;;;;3.28;58.55;98042.09;6251502;28;20231;-68
2022/03/05 11:37:50;;;;;;;16.70;11.43;;;;;;;3.16;58.87;98046.09;6252193;28;20320;-69
2022/03/05 11:40:52;;;;;;;17.57;11.97;;;;;;;3.11;59.51;98048.03;6252495;28;20247;-68
2022/03/05 11:44:11;;;;;;;18.30;12.27;;;;;;;3.13;58.84;98038.41;6233419;28;20718;-69
2022/03/05 11:47:29;;;;;;;17.37;12.30;;;;;;;3.19;58.77;98039.91;6250618;28;20728;-69
2022/03/05 11:50:31;;;;;;;17.07;11.97;;;;;;;3.16;58.57;98032.22;6253377;28;20618;-69
2022/03/05 11:53:33;;;;;;;19.67;12.33;;;;;;;3.02;58.05;98027.59;6251964;28;20897;-69
2022/03/05 11:56:35;;;;;;;20.50;12.43;;;;;;;3.09;58.92;98030.81;6233118;28;20324;-69
2022/03/05 11:59:38;;;;;;;17.20;11.90;;;;;;;3.05;57.79;98032.69;6252545;28;20715;-69
2022/03/05 12:02:45;;;;;;;17.17;11.40;;;;;;;3.01;57.59;98023.31;6251977;28;20231;-69
2022/03/05 12:05:47;;;;;;;18.33;12.10;;;;;;;3.03;57.18;98028.44;6251813;28;20234;-68
2022/03/05 12:08:51;;;;;;;16.43;11.60;;;;;;;2.99;57.18;98026.91;6251427;28;20754;-68
2022/03/05 12:11:55;;;;;;;18.07;12.40;;;;;;;3.03;58.06;98028.44;6251977;28;20262;-68
2022/03/05 12:15:04;;;;;;;19.10;12.50;;;;;;;2.98;57.61;98023.47;6232614;28;20237;-68
2022/03/05 12:18:09;;;;;;;18.83;11.80;;;;;;;2.99;57.23;98026.91;6249444;28;20222;-70
2022/03/05 12:21:12;;;;;;;18.03;11.53;;;;;;;3.05;57.79;98019.66;6228196;28;20224;-68
2022/03/05 12:24:14;;;;;;;19.20;12.67;;;;;;;3.18;57.82;98018.19;6209605;28;20204;-68
2022/03/05 12:27:18;;;;;;;17.73;12.03;;;;;;;3.27;57.76;98022.16;6227044;28;20235;-69
2022/03/05 12:30:25;;;;;;;16.83;12.23;;;;;;;3.36;57.87;98015.66;6225841;28;20279;-69
2022/03/05 12:33:27;;;;;;;18.40;12.17;;;;;;;3.39;57.89;98018.13;6227022;28;20244;-69
2022/03/05 12:36:29;;;;;;;18.77;12.73;;;;;;;3.28;57.75;98016.00;6226838;28;20227;-68
2022/03/05 12:39:32;;;;;;;18.23;11.93;;;;;;;3.26;57.44;98018.69;6208680;28;20317;-68
2022/03/05 12:42:55;;;;;;;18.43;11.23;;;;;;;3.28;58.09;98009.03;6226092;28;20230;-68
2022/03/05 12:45:57;;;;;;;16.50;11.53;;;;;;;3.24;58.03;98006.63;6235507;28;20252;-69
2022/03/05 12:49:08;;;;;;;18.60;11.53;;;;;;;3.18;58.83;98004.31;6242220;28;20250;-69
2022/03/05 12:52:16;;;;;;;18.40;12.53;;;;;;;3.14;59.35;98006.19;6250471;28;20686;-68
2022/03/05 12:55:19;;;;;;;19.27;12.40;;;;;;;3.18;59.52;97999.09;6230471;28;20752;-69
2022/03/05 12:58:32;;;;;;;17.97;11.73;;;;;;;3.19;59.57;98000.78;6249614;28;20712;-69
2022/03/05 13:01:34;;;;;;;19.43;11.53;;;;;;;3.21;59.46;98012.81;6250319;28;20233;-68
2022/03/05 13:04:37;;;;;;;17.90;11.13;;;;;;;2.99;59.90;98009.50;6233501;28;20239;-69
2022/03/05 13:07:39;;;;;;;16.27;10.93;;;;;;;2.87;60.39;98012.66;6251248;28;20243;-69
2022/03/05 13:10:41;;;;;;;17.03;11.37;;;;;;;2.88;60.31;98006.53;6232989;28;20704;-69
2022/03/05 13:13:49;;;;;;;16.40;10.70;;;;;;;2.84;59.64;98013.63;6250500;28;20783;-68
2022/03/05 13:16:52;;;;;;;18.87;11.50;;;;;;;2.85;59.72;98010.13;6248907;28;20338;-68
2022/03/05 13:20:03;;;;;;;17.60;11.27;;;;;;;2.88;59.57;98009.13;6236652;28;20250;-69
2022/03/05 13:23:05;;;;;;;15.27;10.27;;;;;;;2.88;59.09;98006.53;6249411;28;20237;-69
2022/03/05 13:26:08;;;;;;;16.03;11.10;;;;;;;3.00;59.33;97999.91;6249614;28;20582;-68
2022/03/05 13:29:11;;;;;;;15.93;10.70;;;;;;;3.17;58.74;98005.22;6248272;28;20624;-69
2022/03/05 13:32:13;;;;;;;15.10;10.50;;;;;;;3.20;58.60;97995.47;6249030;28;20228;-68
2022/03/05 13:35:16;;;;;;;15.03;11.03;;;;;;;3.32;57.99;97994.06;6249551;28;20603;-69
2022/03/05 13:38:25;;;;;;;17.23;11.03;;;;;;;3.51;57.66;97994.06;6230882;28;20239;-69
2022/03/05 13:41:30;;;;;;;18.60;11.27;;;;;;;3.65;57.26;97991.66;6238702;28;20300;-69
2022/03/05 13:44:34;;;;;;;16.17;10.93;;;;;;;3.63;56.87;97985.66;6222616;28;20232;-68
2022/03/05 13:47:45;;;;;;;16.47;11.20;;;;;;;3.45;56.79;97989.13;6247199;28;20259;-67
2022/03/05 13:50:48;;;;;;;20.03;11.83;;;;;;;3.22;57.31;97984.97;6248201;28;20229;-67
2022/03/05 13:53:56;;;;;;;16.47;11.47;;;;;;;3.13;57.99;97986.25;6235107;28;20637;-68
2022/03/05 13:56:58;;;;;;;16.10;10.67;;;;;;;3.06;58.27;97989.22;6249288;28;20444;-67
2022/03/05 14:00:07;;;;;;;16.07;9.87;;;;;;;3.00;58.59;98002.50;6249840;28;20286;-68
2022/03/05 14:03:16;;;;;;;16.77;11.23;;;;;;;2.71;60.13;98007.25;6237327;28;20814;-67
2022/03/05 14:06:18;;;;;;;17.23;10.93;;;;;;;2.43;61.78;98012.81;6231598;28;20205;-68
2022/03/05 14:09:34;;;;;;;18.00;11.23;;;;;;;2.33;62.02;98008.06;6249582;28;20213;-68
2022/03/05 14:12:37;;;;;;;14.90;9.43;;;;;;;2.28;62.80;98002.22;6250287;28;20708;-68
2022/03/05 14:15:39;;;;;;;17.37;10.67;;;;;;;2.27;62.39;98006.56;6248871;28;21038;-68